sensor_id;sensor_type;location;lat;lon;timestamp;pressure;altitude;pressure_sealevel;temperature;humidity
37892;BME280;45797;47.466;9.486;2023-04-06T00:01:54;95999.59;;;6.02;44.86
37892;BME280;45797;47.466;9.486;2023-04-06T00:06:54;95997.91;;;6.01;45.30
37892;BME280;45797;47.466;9.486;2023-04-06T00:11:54;95991.94;;;5.99;45.25
37892;BME280;45797;47.466;9.486;2023-04-06T00:16:55;95984.44;;;5.93;45.46
37892;BME280;45797;47.466;9.486;2023-04-06T00:21:55;95988.25;;;5.86;45.65
37892;BME280;45797;47.466;9.486;2023-04-06T00:26:56;95990.53;;;5.74;45.84
37892;BME280;45797;47.466;9.486;2023-04-06T00:31:56;95989.94;;;5.69;46.20
37892;BME280;45797;47.466;9.486;2023-04-06T00:36:56;95996.28;;;5.64;46.52
37892;BME280;45797;47.466;9.486;2023-04-06T00:41:56;95988.75;;;5.58;46.38
37892;BME280;45797;47.466;9.486;2023-04-06T00:46:57;95984.72;;;5.52;46.96
37892;BME280;45797;47.466;9.486;2023-04-06T00:51:57;95986.78;;;5.45;46.44
37892;BME280;45797;47.466;9.486;2023-04-06T00:56:57;95986.19;;;5.40;46.80
37892;BME280;45797;47.466;9.486;2023-04-06T01:01:59;95972.66;;;5.34;47.22
37892;BME280;45797;47.466;9.486;2023-04-06T01:07:08;95974.59;;;5.29;46.82
37892;BME280;45797;47.466;9.486;2023-04-06T01:12:16;95975.59;;;5.26;47.16
37892;BME280;45797;47.466;9.486;2023-04-06T01:17:17;95970.66;;;5.22;46.82
37892;BME280;45797;47.466;9.486;2023-04-06T01:22:19;95969.09;;;5.18;46.83
37892;BME280;45797;47.466;9.486;2023-04-06T01:27:29;95967.41;;;5.16;46.85
37892;BME280;45797;47.466;9.486;2023-04-06T01:32:45;95965.47;;;5.22;46.39
37892;BME280;45797;47.466;9.486;2023-04-06T01:37:48;95963.53;;;5.25;47.13
37892;BME280;45797;47.466;9.486;2023-04-06T01:42:57;95961.72;;;5.27;46.81
37892;BME280;45797;47.466;9.486;2023-04-06T01:48:13;95957.22;;;5.31;46.90
37892;BME280;45797;47.466;9.486;2023-04-06T01:53:14;95958.91;;;5.32;46.95
37892;BME280;45797;47.466;9.486;2023-04-06T01:58:17;95950.41;;;5.28;46.99
37892;BME280;45797;47.466;9.486;2023-04-06T02:03:18;95950.56;;;5.25;47.38
37892;BME280;45797;47.466;9.486;2023-04-06T02:08:19;95950.00;;;5.19;47.39
37892;BME280;45797;47.466;9.486;2023-04-06T02:13:20;95949.31;;;5.15;47.82
37892;BME280;45797;47.466;9.486;2023-04-06T02:18:25;95954.72;;;5.10;47.71
37892;BME280;45797;47.466;9.486;2023-04-06T02:23:25;95943.75;;;5.05;48.10
37892;BME280;45797;47.466;9.486;2023-04-06T02:28:26;95937.72;;;5.05;47.24
37892;BME280;45797;47.466;9.486;2023-04-06T02:33:26;95944.50;;;5.07;48.12
37892;BME280;45797;47.466;9.486;2023-04-06T02:38:26;95944.50;;;5.07;47.60
37892;BME280;45797;47.466;9.486;2023-04-06T02:43:26;95945.69;;;5.00;48.36
37892;BME280;45797;47.466;9.486;2023-04-06T02:48:38;95939.91;;;4.95;47.75
37892;BME280;45797;47.466;9.486;2023-04-06T02:53:39;95942.94;;;4.86;47.93
37892;BME280;45797;47.466;9.486;2023-04-06T02:58:39;95944.88;;;4.81;48.20
37892;BME280;45797;47.466;9.486;2023-04-06T03:03:39;95936.34;;;4.79;48.74
37892;BME280;45797;47.466;9.486;2023-04-06T03:08:45;95940.91;;;4.74;48.50
37892;BME280;45797;47.466;9.486;2023-04-06T03:13:47;95937.84;;;4.66;49.00
37892;BME280;45797;47.466;9.486;2023-04-06T03:18:47;95932.16;;;4.57;49.20
37892;BME280;45797;47.466;9.486;2023-04-06T03:23:48;95935.94;;;4.50;48.89
37892;BME280;45797;47.466;9.486;2023-04-06T03:28:51;95927.50;;;4.45;48.52
37892;BME280;45797;47.466;9.486;2023-04-06T03:33:53;95936.44;;;4.40;49.42
37892;BME280;45797;47.466;9.486;2023-04-06T03:38:58;95940.97;;;4.35;49.50
37892;BME280;45797;47.466;9.486;2023-04-06T03:43:59;95947.16;;;4.32;49.22
37892;BME280;45797;47.466;9.486;2023-04-06T03:48:59;95944.81;;;4.26;49.34
37892;BME280;45797;47.466;9.486;2023-04-06T03:54:00;95949.31;;;4.22;49.61
37892;BME280;45797;47.466;9.486;2023-04-06T03:59:00;95952.88;;;4.20;49.60
37892;BME280;45797;47.466;9.486;2023-04-06T04:04:01;95953.91;;;4.16;49.34
37892;BME280;45797;47.466;9.486;2023-04-06T04:09:04;95959.31;;;4.11;49.73
37892;BME280;45797;47.466;9.486;2023-04-06T04:14:04;95969.81;;;4.08;49.81
37892;BME280;45797;47.466;9.486;2023-04-06T04:19:05;95968.19;;;4.06;49.27
37892;BME280;45797;47.466;9.486;2023-04-06T04:24:05;95968.31;;;4.03;49.74
37892;BME280;45797;47.466;9.486;2023-04-06T04:29:08;95960.69;;;3.99;49.44
37892;BME280;45797;47.466;9.486;2023-04-06T04:34:10;95970.34;;;3.96;49.86
37892;BME280;45797;47.466;9.486;2023-04-06T04:39:12;95973.00;;;3.94;50.02
37892;BME280;45797;47.466;9.486;2023-04-06T04:44:17;95969.78;;;3.89;50.10
37892;BME280;45797;47.466;9.486;2023-04-06T04:49:17;95980.13;;;3.89;49.61
37892;BME280;45797;47.466;9.486;2023-04-06T04:54:18;95976.75;;;3.87;49.88
37892;BME280;45797;47.466;9.486;2023-04-06T04:59:19;95975.22;;;3.83;50.25
37892;BME280;45797;47.466;9.486;2023-04-06T05:04:26;95982.91;;;3.85;50.18
37892;BME280;45797;47.466;9.486;2023-04-06T05:09:30;95977.66;;;3.86;49.92
37892;BME280;45797;47.466;9.486;2023-04-06T05:14:31;95985.19;;;3.92;49.91
37892;BME280;45797;47.466;9.486;2023-04-06T05:19:34;95988.38;;;3.99;49.56
37892;BME280;45797;47.466;9.486;2023-04-06T05:24:35;95991.41;;;4.09;50.13
37892;BME280;45797;47.466;9.486;2023-04-06T05:29:39;95996.19;;;4.18;49.49
37892;BME280;45797;47.466;9.486;2023-04-06T05:34:40;95994.94;;;4.26;49.30
37892;BME280;45797;47.466;9.486;2023-04-06T05:39:41;96003.78;;;4.41;49.40
37892;BME280;45797;47.466;9.486;2023-04-06T05:44:42;95996.34;;;4.52;49.13
37892;BME280;45797;47.466;9.486;2023-04-06T05:49:46;96012.00;;;4.70;49.12
37892;BME280;45797;47.466;9.486;2023-04-06T05:54:58;96011.31;;;4.85;49.07
37892;BME280;45797;47.466;9.486;2023-04-06T05:59:59;96010.47;;;5.03;48.82
37892;BME280;45797;47.466;9.486;2023-04-06T06:05:12;96020.09;;;5.19;48.31
37892;BME280;45797;47.466;9.486;2023-04-06T06:10:14;96017.47;;;5.37;48.15
37892;BME280;45797;47.466;9.486;2023-04-06T06:15:15;96025.28;;;5.55;48.59
37892;BME280;45797;47.466;9.486;2023-04-06T06:20:19;96020.03;;;5.73;48.38
37892;BME280;45797;47.466;9.486;2023-04-06T06:25:21;96020.97;;;5.90;47.80
37892;BME280;45797;47.466;9.486;2023-04-06T06:30:23;96015.84;;;6.06;47.76
37892;BME280;45797;47.466;9.486;2023-04-06T06:35:23;96015.00;;;6.22;47.95
37892;BME280;45797;47.466;9.486;2023-04-06T06:40:23;96026.31;;;6.39;48.11
37892;BME280;45797;47.466;9.486;2023-04-06T06:45:24;96029.09;;;6.51;47.96
37892;BME280;45797;47.466;9.486;2023-04-06T06:50:25;96033.69;;;6.64;47.40
37892;BME280;45797;47.466;9.486;2023-04-06T06:55:25;96038.13;;;6.77;48.21
37892;BME280;45797;47.466;9.486;2023-04-06T07:00:26;96038.50;;;6.87;47.64
37892;BME280;45797;47.466;9.486;2023-04-06T07:05:27;96042.94;;;7.01;47.54
37892;BME280;45797;47.466;9.486;2023-04-06T07:10:28;96035.66;;;7.07;47.44
37892;BME280;45797;47.466;9.486;2023-04-06T07:15:28;96040.34;;;7.16;47.55
37892;BME280;45797;47.466;9.486;2023-04-06T07:20:30;96039.94;;;7.24;47.96
37892;BME280;45797;47.466;9.486;2023-04-06T07:25:30;96043.72;;;7.34;47.56
37892;BME280;45797;47.466;9.486;2023-04-06T07:30:30;96040.28;;;7.34;48.44
37892;BME280;45797;47.466;9.486;2023-04-06T07:35:32;96042.09;;;7.48;48.16
37892;BME280;45797;47.466;9.486;2023-04-06T07:40:34;96043.25;;;7.58;48.15
37892;BME280;45797;47.466;9.486;2023-04-06T07:45:35;96047.22;;;7.65;48.34
37892;BME280;45797;47.466;9.486;2023-04-06T07:50:36;96048.97;;;7.80;47.71
37892;BME280;45797;47.466;9.486;2023-04-06T07:55:37;96041.38;;;7.91;48.13
37892;BME280;45797;47.466;9.486;2023-04-06T08:00:37;96035.56;;;7.86;47.65
37892;BME280;45797;47.466;9.486;2023-04-06T08:05:37;96030.59;;;7.97;47.67
37892;BME280;45797;47.466;9.486;2023-04-06T08:10:37;96033.22;;;8.12;47.48
37892;BME280;45797;47.466;9.486;2023-04-06T08:15:38;96030.81;;;8.23;47.46
37892;BME280;45797;47.466;9.486;2023-04-06T08:20:39;96045.63;;;8.38;47.76
37892;BME280;45797;47.466;9.486;2023-04-06T08:25:39;96039.75;;;8.49;47.55
37892;BME280;45797;47.466;9.486;2023-04-06T08:30:41;96041.44;;;8.64;47.43
37892;BME280;45797;47.466;9.486;2023-04-06T08:35:41;96034.16;;;8.69;46.99
37892;BME280;45797;47.466;9.486;2023-04-06T08:40:41;96034.84;;;8.73;47.55
37892;BME280;45797;47.466;9.486;2023-04-06T08:45:44;96039.28;;;8.71;47.62
37892;BME280;45797;47.466;9.486;2023-04-06T08:50:45;96039.97;;;8.74;47.80
37892;BME280;45797;47.466;9.486;2023-04-06T08:55:45;96039.50;;;8.82;47.43
37892;BME280;45797;47.466;9.486;2023-04-06T09:00:46;96047.59;;;8.92;47.60
37892;BME280;45797;47.466;9.486;2023-04-06T09:05:47;96047.88;;;9.01;47.31
37892;BME280;45797;47.466;9.486;2023-04-06T09:10:48;96036.41;;;9.04;47.47
37892;BME280;45797;47.466;9.486;2023-04-06T09:16:01;96034.94;;;9.27;46.98
37892;BME280;45797;47.466;9.486;2023-04-06T09:21:06;96029.84;;;9.52;46.95
37892;BME280;45797;47.466;9.486;2023-04-06T09:26:13;96034.63;;;9.45;47.02
37892;BME280;45797;47.466;9.486;2023-04-06T09:31:15;96037.22;;;9.60;47.11
37892;BME280;45797;47.466;9.486;2023-04-06T09:36:16;96021.91;;;9.81;46.76
37892;BME280;45797;47.466;9.486;2023-04-06T09:41:28;96029.28;;;10.01;46.45
37892;BME280;45797;47.466;9.486;2023-04-06T09:46:37;96018.75;;;10.15;46.24
37892;BME280;45797;47.466;9.486;2023-04-06T09:51:51;96015.00;;;10.32;46.14
37892;BME280;45797;47.466;9.486;2023-04-06T09:57:11;96014.50;;;10.52;45.90
37892;BME280;45797;47.466;9.486;2023-04-06T10:02:29;96012.09;;;10.62;45.87
37892;BME280;45797;47.466;9.486;2023-04-06T10:07:32;96008.59;;;10.87;45.43
37892;BME280;45797;47.466;9.486;2023-04-06T10:12:33;96003.31;;;11.12;45.52
37892;BME280;45797;47.466;9.486;2023-04-06T10:17:33;96003.88;;;11.41;44.50
37892;BME280;45797;47.466;9.486;2023-04-06T10:22:53;95996.94;;;11.64;44.33
37892;BME280;45797;47.466;9.486;2023-04-06T10:28:01;95989.16;;;11.76;44.30
37892;BME280;45797;47.466;9.486;2023-04-06T10:33:14;95981.94;;;11.90;44.19
37892;BME280;45797;47.466;9.486;2023-04-06T10:38:15;95987.53;;;11.86;44.23
37892;BME280;45797;47.466;9.486;2023-04-06T10:43:22;95981.53;;;11.84;44.10
37892;BME280;45797;47.466;9.486;2023-04-06T10:48:22;95984.88;;;12.10;43.83
37892;BME280;45797;47.466;9.486;2023-04-06T10:53:27;95980.41;;;12.45;43.08
37892;BME280;45797;47.466;9.486;2023-04-06T10:58:28;95982.34;;;12.77;42.79
37892;BME280;45797;47.466;9.486;2023-04-06T11:03:29;95984.59;;;13.04;42.19
37892;BME280;45797;47.466;9.486;2023-04-06T11:08:31;95991.06;;;13.33;41.76
37892;BME280;45797;47.466;9.486;2023-04-06T11:13:42;95980.47;;;13.67;41.20
37892;BME280;45797;47.466;9.486;2023-04-06T11:19:02;95968.63;;;13.93;41.07
37892;BME280;45797;47.466;9.486;2023-04-06T11:24:07;95966.56;;;14.18;40.55
37892;BME280;45797;47.466;9.486;2023-04-06T11:29:10;95968.22;;;14.40;40.52
37892;BME280;45797;47.466;9.486;2023-04-06T11:34:12;95951.16;;;14.85;39.53
37892;BME280;45797;47.466;9.486;2023-04-06T11:39:17;95953.25;;;15.32;38.98
37892;BME280;45797;47.466;9.486;2023-04-06T11:44:49;95945.47;;;15.30;39.18
37892;BME280;45797;47.466;9.486;2023-04-06T11:49:49;95948.44;;;15.56;39.03
37892;BME280;45797;47.466;9.486;2023-04-06T11:54:51;95934.31;;;15.86;38.63
37892;BME280;45797;47.466;9.486;2023-04-06T11:59:52;95936.38;;;16.21;38.01
37892;BME280;45797;47.466;9.486;2023-04-06T12:04:52;95938.69;;;16.44;37.74
37892;BME280;45797;47.466;9.486;2023-04-06T12:09:52;95934.66;;;16.40;37.64
37892;BME280;45797;47.466;9.486;2023-04-06T12:14:55;95920.84;;;16.46;38.03
37892;BME280;45797;47.466;9.486;2023-04-06T12:19:55;95919.13;;;16.74;37.31
37892;BME280;45797;47.466;9.486;2023-04-06T12:25:06;95913.69;;;16.75;37.25
37892;BME280;45797;47.466;9.486;2023-04-06T12:30:09;95912.28;;;16.81;37.38
37892;BME280;45797;47.466;9.486;2023-04-06T12:35:11;95910.50;;;16.62;37.31
37892;BME280;45797;47.466;9.486;2023-04-06T12:41:00;95901.31;;;16.56;37.21
37892;BME280;45797;47.466;9.486;2023-04-06T12:46:15;95902.56;;;16.72;37.06
37892;BME280;45797;47.466;9.486;2023-04-06T12:51:27;95898.75;;;16.84;36.76
37892;BME280;45797;47.466;9.486;2023-04-06T12:56:57;95907.81;;;16.81;36.74
37892;BME280;45797;47.466;9.486;2023-04-06T13:02:09;95903.06;;;17.12;36.32
37892;BME280;45797;47.466;9.486;2023-04-06T13:07:25;95897.50;;;17.33;35.99
37892;BME280;45797;47.466;9.486;2023-04-06T13:12:43;95887.00;;;17.59;35.50
37892;BME280;45797;47.466;9.486;2023-04-06T13:17:56;95885.81;;;17.72;35.80
37892;BME280;45797;47.466;9.486;2023-04-06T13:23:08;95883.84;;;17.91;35.44
37892;BME280;45797;47.466;9.486;2023-04-06T13:28:12;95883.19;;;18.15;35.09
37892;BME280;45797;47.466;9.486;2023-04-06T13:33:36;95889.63;;;18.13;35.47
37892;BME280;45797;47.466;9.486;2023-04-06T13:39:04;95873.53;;;18.32;35.07
37892;BME280;45797;47.466;9.486;2023-04-06T13:44:38;95866.28;;;18.42;34.89
37892;BME280;45797;47.466;9.486;2023-04-06T14:02:48;95856.34;;;18.44;35.10
37892;BME280;45797;47.466;9.486;2023-04-06T14:08:08;95854.28;;;18.64;34.83
37892;BME280;45797;47.466;9.486;2023-04-06T14:13:15;95853.31;;;18.65;34.49
37892;BME280;45797;47.466;9.486;2023-04-06T14:18:20;95850.75;;;18.81;34.29
37892;BME280;45797;47.466;9.486;2023-04-06T14:23:23;95851.53;;;19.16;34.01
37892;BME280;45797;47.466;9.486;2023-04-06T14:28:35;95846.84;;;19.02;34.52
37892;BME280;45797;47.466;9.486;2023-04-06T14:33:40;95843.81;;;18.89;34.43
37892;BME280;45797;47.466;9.486;2023-04-06T14:38:46;95847.38;;;19.05;34.30
37892;BME280;45797;47.466;9.486;2023-04-06T14:43:51;95844.59;;;19.31;33.67
37892;BME280;45797;47.466;9.486;2023-04-06T14:48:58;95846.00;;;19.76;33.19
37892;BME280;45797;47.466;9.486;2023-04-06T14:54:00;95858.13;;;19.71;33.30
37892;BME280;45797;47.466;9.486;2023-04-06T14:59:06;95846.50;;;19.63;33.52
37892;BME280;45797;47.466;9.486;2023-04-06T15:04:08;95840.88;;;19.75;33.46
37892;BME280;45797;47.466;9.486;2023-04-06T15:09:11;95846.19;;;19.75;34.00
37892;BME280;45797;47.466;9.486;2023-04-06T15:14:19;95850.34;;;19.85;33.27
37892;BME280;45797;47.466;9.486;2023-04-06T15:19:20;95855.31;;;20.13;32.72
37892;BME280;45797;47.466;9.486;2023-04-06T15:24:20;95848.97;;;20.38;32.37
37892;BME280;45797;47.466;9.486;2023-04-06T15:29:20;95852.13;;;20.50;31.98
37892;BME280;45797;47.466;9.486;2023-04-06T15:34:20;95852.94;;;20.34;32.26
37892;BME280;45797;47.466;9.486;2023-04-06T15:39:21;95843.34;;;19.92;32.82
37892;BME280;45797;47.466;9.486;2023-04-06T15:44:27;95844.84;;;19.71;33.01
37892;BME280;45797;47.466;9.486;2023-04-06T15:49:38;95844.38;;;19.08;33.41
37892;BME280;45797;47.466;9.486;2023-04-06T15:54:40;95850.75;;;18.81;33.65
37892;BME280;45797;47.466;9.486;2023-04-06T15:59:42;95848.81;;;18.58;33.81
37892;BME280;45797;47.466;9.486;2023-04-06T16:04:43;95846.06;;;18.41;33.84
37892;BME280;45797;47.466;9.486;2023-04-06T16:09:43;95842.53;;;18.33;33.88
37892;BME280;45797;47.466;9.486;2023-04-06T16:15:03;95848.16;;;18.04;33.83
37892;BME280;45797;47.466;9.486;2023-04-06T16:20:33;95843.63;;;17.60;34.27
37892;BME280;45797;47.466;9.486;2023-04-06T16:25:34;95844.06;;;17.20;35.06
37892;BME280;45797;47.466;9.486;2023-04-06T16:30:38;95837.63;;;16.87;35.16
37892;BME280;45797;47.466;9.486;2023-04-06T16:35:47;95854.97;;;16.62;35.36
37892;BME280;45797;47.466;9.486;2023-04-06T16:41:01;95855.56;;;16.46;35.51
37892;BME280;45797;47.466;9.486;2023-04-06T16:46:04;95850.28;;;16.46;35.54
37892;BME280;45797;47.466;9.486;2023-04-06T16:51:07;95850.75;;;16.79;35.15
37892;BME280;45797;47.466;9.486;2023-04-06T16:56:16;95847.16;;;16.98;35.02
37892;BME280;45797;47.466;9.486;2023-04-06T17:01:25;95851.13;;;16.84;35.30
37892;BME280;45797;47.466;9.486;2023-04-06T17:06:25;95858.03;;;16.57;35.68
37892;BME280;45797;47.466;9.486;2023-04-06T17:11:27;95845.91;;;16.27;36.07
37892;BME280;45797;47.466;9.486;2023-04-06T17:16:27;95854.19;;;15.95;36.28
37892;BME280;45797;47.466;9.486;2023-04-06T17:21:27;95849.38;;;15.62;36.58
37892;BME280;45797;47.466;9.486;2023-04-06T17:26:27;95852.41;;;15.28;36.95
37892;BME280;45797;47.466;9.486;2023-04-06T17:31:27;95847.34;;;14.96;36.85
37892;BME280;45797;47.466;9.486;2023-04-06T17:36:28;95852.81;;;14.64;37.59
37892;BME280;45797;47.466;9.486;2023-04-06T17:41:28;95854.50;;;14.35;37.70
37892;BME280;45797;47.466;9.486;2023-04-06T17:46:31;95861.66;;;14.02;38.10
37892;BME280;45797;47.466;9.486;2023-04-06T17:51:31;95864.22;;;13.71;38.20
37892;BME280;45797;47.466;9.486;2023-04-06T17:56:31;95871.06;;;13.42;38.87
37892;BME280;45797;47.466;9.486;2023-04-06T18:01:32;95878.41;;;13.16;38.94
37892;BME280;45797;47.466;9.486;2023-04-06T18:06:36;95893.44;;;12.93;39.08
37892;BME280;45797;47.466;9.486;2023-04-06T18:11:42;95899.91;;;12.67;39.19
37892;BME280;45797;47.466;9.486;2023-04-06T18:16:43;95899.69;;;12.47;39.48
37892;BME280;45797;47.466;9.486;2023-04-06T18:21:44;95905.78;;;12.37;39.13
37892;BME280;45797;47.466;9.486;2023-04-06T18:26:44;95911.63;;;12.29;39.30
37892;BME280;45797;47.466;9.486;2023-04-06T18:31:45;95915.66;;;12.22;39.32
37892;BME280;45797;47.466;9.486;2023-04-06T18:36:49;95917.31;;;12.12;39.25
37892;BME280;45797;47.466;9.486;2023-04-06T18:41:49;95915.16;;;12.06;38.98
37892;BME280;45797;47.466;9.486;2023-04-06T18:46:50;95911.84;;;12.04;38.73
37892;BME280;45797;47.466;9.486;2023-04-06T18:51:50;95925.16;;;12.00;39.13
37892;BME280;45797;47.466;9.486;2023-04-06T18:56:52;95934.00;;;11.99;39.06
37892;BME280;45797;47.466;9.486;2023-04-06T19:01:52;95936.63;;;11.99;38.71
37892;BME280;45797;47.466;9.486;2023-04-06T19:06:52;95937.34;;;12.01;38.35
37892;BME280;45797;47.466;9.486;2023-04-06T19:11:54;95946.44;;;12.09;38.11
37892;BME280;45797;47.466;9.486;2023-04-06T19:16:54;95945.22;;;12.13;37.88
37892;BME280;45797;47.466;9.486;2023-04-06T19:21:54;95952.78;;;12.17;37.58
37892;BME280;45797;47.466;9.486;2023-04-06T19:26:55;95956.25;;;12.18;37.46
37892;BME280;45797;47.466;9.486;2023-04-06T19:31:56;95958.63;;;12.21;37.28
37892;BME280;45797;47.466;9.486;2023-04-06T19:36:59;95957.22;;;12.28;37.34
37892;BME280;45797;47.466;9.486;2023-04-06T19:42:00;95957.34;;;12.26;37.57
37892;BME280;45797;47.466;9.486;2023-04-06T19:47:00;95959.25;;;12.24;37.43
37892;BME280;45797;47.466;9.486;2023-04-06T19:52:00;95962.84;;;12.23;37.34
37892;BME280;45797;47.466;9.486;2023-04-06T19:57:02;95961.25;;;12.21;37.35
37892;BME280;45797;47.466;9.486;2023-04-06T20:02:03;95968.41;;;12.19;37.44
37892;BME280;45797;47.466;9.486;2023-04-06T20:07:06;95968.16;;;12.11;37.70
37892;BME280;45797;47.466;9.486;2023-04-06T20:12:07;95979.13;;;12.05;37.54
37892;BME280;45797;47.466;9.486;2023-04-06T20:17:07;95973.25;;;12.01;37.67
37892;BME280;45797;47.466;9.486;2023-04-06T20:22:07;95969.09;;;11.98;37.78
37892;BME280;45797;47.466;9.486;2023-04-06T20:27:07;95970.28;;;11.94;37.62
37892;BME280;45797;47.466;9.486;2023-04-06T20:32:10;95975.41;;;11.96;37.77
37892;BME280;45797;47.466;9.486;2023-04-06T20:37:11;95971.00;;;11.96;38.01
37892;BME280;45797;47.466;9.486;2023-04-06T20:42:12;95971.00;;;11.96;37.94
37892;BME280;45797;47.466;9.486;2023-04-06T20:47:12;95973.75;;;11.95;37.74
37892;BME280;45797;47.466;9.486;2023-04-06T20:52:12;95974.91;;;11.91;37.65
37892;BME280;45797;47.466;9.486;2023-04-06T20:57:13;95979.66;;;11.86;38.19
37892;BME280;45797;47.466;9.486;2023-04-06T21:02:13;95982.63;;;11.81;38.35
37892;BME280;45797;47.466;9.486;2023-04-06T21:07:14;95974.44;;;11.73;38.57
37892;BME280;45797;47.466;9.486;2023-04-06T21:12:14;95982.66;;;11.68;38.69
37892;BME280;45797;47.466;9.486;2023-04-06T21:17:14;95983.34;;;11.59;38.23
37892;BME280;45797;47.466;9.486;2023-04-06T21:22:15;95986.75;;;11.49;39.13
37892;BME280;45797;47.466;9.486;2023-04-06T21:27:15;95988.78;;;11.32;39.43
37892;BME280;45797;47.466;9.486;2023-04-06T21:32:15;95973.59;;;11.25;39.42
37892;BME280;45797;47.466;9.486;2023-04-06T21:37:15;95974.44;;;11.25;39.79
37892;BME280;45797;47.466;9.486;2023-04-06T21:42:15;95970.78;;;11.28;39.79
37892;BME280;45797;47.466;9.486;2023-04-06T21:47:16;95968.16;;;11.28;39.91
37892;BME280;45797;47.466;9.486;2023-04-06T21:52:16;95970.53;;;11.31;39.84
37892;BME280;45797;47.466;9.486;2023-04-06T21:57:16;95963.53;;;11.31;39.83
37892;BME280;45797;47.466;9.486;2023-04-06T22:02:16;95963.53;;;11.31;40.40
37892;BME280;45797;47.466;9.486;2023-04-06T22:07:17;95955.88;;;11.28;40.40
37892;BME280;45797;47.466;9.486;2023-04-06T22:12:17;95962.03;;;11.27;40.68
37892;BME280;45797;47.466;9.486;2023-04-06T22:17:17;95955.38;;;11.23;40.67
37892;BME280;45797;47.466;9.486;2023-04-06T22:22:17;95955.59;;;11.20;40.94
37892;BME280;45797;47.466;9.486;2023-04-06T22:27:17;95958.41;;;11.17;41.35
37892;BME280;45797;47.466;9.486;2023-04-06T22:32:18;95954.34;;;11.13;41.16
37892;BME280;45797;47.466;9.486;2023-04-06T22:37:18;95945.97;;;11.08;41.26
37892;BME280;45797;47.466;9.486;2023-04-06T22:42:19;95942.63;;;11.06;41.34
37892;BME280;45797;47.466;9.486;2023-04-06T22:47:20;95944.75;;;11.01;41.63
37892;BME280;45797;47.466;9.486;2023-04-06T22:52:20;95938.25;;;10.94;41.72
37892;BME280;45797;47.466;9.486;2023-04-06T22:57:20;95936.59;;;10.80;41.83
37892;BME280;45797;47.466;9.486;2023-04-06T23:02:21;95935.03;;;10.77;41.78
37892;BME280;45797;47.466;9.486;2023-04-06T23:07:21;95941.25;;;10.76;42.28
37892;BME280;45797;47.466;9.486;2023-04-06T23:12:21;95936.63;;;10.67;42.16
37892;BME280;45797;47.466;9.486;2023-04-06T23:17:22;95941.25;;;10.51;42.61
37892;BME280;45797;47.466;9.486;2023-04-06T23:22:23;95939.81;;;10.47;42.62
37892;BME280;45797;47.466;9.486;2023-04-06T23:27:23;95922.75;;;10.54;42.45
37892;BME280;45797;47.466;9.486;2023-04-06T23:32:24;95915.38;;;10.59;42.35
37892;BME280;45797;47.466;9.486;2023-04-06T23:37:24;95910.88;;;10.61;42.80
37892;BME280;45797;47.466;9.486;2023-04-06T23:42:25;95907.34;;;10.62;43.00
37892;BME280;45797;47.466;9.486;2023-04-06T23:47:25;95903.88;;;10.62;43.02
37892;BME280;45797;47.466;9.486;2023-04-06T23:52:25;95902.09;;;10.62;43.06
37892;BME280;45797;47.466;9.486;2023-04-06T23:57:26;95891.63;;;10.62;42.99
